Create Custom Reports and Graphics: Custom Report

Canyon Lodge

Current Conditions

12/1/22 11:00 PM (-08:00)
Updated Every 15 Minutes
Temp 22.4 °F   5.3
RH 95 %   36
Dew Pt 21.1 °F   6.1
Wet Bulb 21.8 °F   2.0
Daily Min Temp 22.3 °F   1.4
Time of Min Temp 2248
Daily Max Temp 30.7 °F   5.8
Time of Max Temp 0016
Yest MinT 20.9 °F
Yest MaxT 36.5 °F

Last 7 Days

Canyon Lodge

Hourly Data | America/Los_Angeles
as of 12/1/22 11:05 PM PST
Date & Time Temp (°F) RH (%) Dew Pt (°F) Wet Bulb (°F) Daily Min Temp (°F) Daily Max Temp (°F)
12/1/22 - 2300 22.8 95 21.6 22.3 22.3 30.7
12/1/22 - 2200 24.3 96 23.2 23.8 23.3 30.7
12/1/22 - 2100 24.8 96 23.7 24.3 23.3 30.7
12/1/22 - 2000 24.2 95 23.0 23.7 23.3 30.7
12/1/22 - 1900 24.0 95 22.8 23.5 23.3 30.7
12/1/22 - 1800 24.1 95 22.8 23.5 23.3 30.7
12/1/22 - 1700 24.4 94 23.0 23.8 23.3 30.7
12/1/22 - 1600 24.6 94 23.0 23.9 23.3 30.7
12/1/22 - 1500 24.6 92 22.6 23.8 23.3 30.7
12/1/22 - 1400 25.0 87 21.7 23.9 23.3 30.7
12/1/22 - 1300 25.4 84 21.4 24.0 23.3 30.7
12/1/22 - 1200 25.4 84 21.2 24.0 23.3 30.7
12/1/22 - 1100 24.8 85 20.9 23.5 23.3 30.7
12/1/22 - 1000 24.6 86 20.8 23.3 23.3 30.7
12/1/22 - 0900 25.1 81 20.2 23.5 23.3 30.7
12/1/22 - 0800 24.0 83 19.6 22.6 23.3 30.7
12/1/22 - 0700 24.0 80 18.9 22.4 23.3 30.7
12/1/22 - 0600 25.7 66 15.6 22.7 23.3 30.7
12/1/22 - 0500 28.2 49 11.6 23.6 27.6 30.7
12/1/22 - 0400 28.8 47 10.9 23.8 28.4 30.7
12/1/22 - 0300 28.9 48 11.5 24.0 28.4 30.7
12/1/22 - 0200 29.0 47 11.1 24.0 28.4 30.7
12/1/22 - 0100 30.0 46 11.5 24.7 29.0 30.7
12/1/22 - 0000 29.1 50 12.9 24.4 20.9 36.5
11/30/22 - 2300 27.9 57 14.5 24.0 20.9 36.5
11/30/22 - 2200 27.8 57 14.4 23.9 20.9 36.5
11/30/22 - 2100 27.2 60 15.0 23.6 20.9 36.5
11/30/22 - 2000 27.2 58 14.5 23.5 20.9 36.5
11/30/22 - 1900 28.0 55 13.8 23.9 20.9 36.5
11/30/22 - 1800 29.1 50 12.6 24.4 20.9 36.5
11/30/22 - 1700 30.8 41 10.1 25.0 20.9 36.5
11/30/22 - 1600 31.8 41 10.9 25.8 20.9 36.5
11/30/22 - 1500 33.0 37 9.7 26.4 20.9 36.5
11/30/22 - 1400 34.6 29 5.7 26.7 20.9 36.5
11/30/22 - 1300 35.6 25 3.2 27.0 20.9 36.5
11/30/22 - 1200 35.8 22 0.2 26.8 20.9 36.5
11/30/22 - 1100 36.1 18 -4.0 26.4 20.9 36.5
11/30/22 - 1000 34.6 18 -5.1 25.4 20.9 36.1
11/30/22 - 0900 33.2 20 -3.8 24.6 20.9 33.7
11/30/22 - 0800 30.7 26 -0.3 23.3 20.9 33.4
11/30/22 - 0700 29.7 28 0.4 22.7 20.9 33.4
11/30/22 - 0600 29.3 28 0.0 22.4 20.9 33.4
11/30/22 - 0500 30.0 28 0.7 23.0 20.9 33.4
11/30/22 - 0400 31.4 25 -0.2 23.8 20.9 33.4
11/30/22 - 0300 28.1 35 3.1 22.0 20.9 33.4
11/30/22 - 0200 25.6 37 2.5 20.2 21.9 32.7
11/30/22 - 0100 27.6 34 2.4 21.5 22.8 32.7
11/30/22 - 0000 22.7 41 2.2 18.1 18.0 39.5
11/29/22 - 2300 22.3 40 1.7 17.8 18.0 39.5
11/29/22 - 2200 23.1 40 2.1 18.4 18.0 39.5
11/29/22 - 2100 22.9 42 3.0 18.3 18.0 39.5
11/29/22 - 2000 24.6 38 2.8 19.5 18.0 39.5
11/29/22 - 1900 25.7 39 3.9 20.5 18.0 39.5
11/29/22 - 1800 26.3 36 3.2 20.8 18.0 39.5
11/29/22 - 1700 27.9 35 3.6 22.0 18.0 39.5
11/29/22 - 1600 30.3 32 4.1 23.7 18.0 39.5
11/29/22 - 1500 35.2 24 2.1 26.6 18.0 39.5
11/29/22 - 1400 37.7 18 -2.5 27.6 18.0 39.5
11/29/22 - 1300 38.6 13 -8.4 27.6 18.0 39.5
11/29/22 - 1200 37.8 13 -9.6 27.0 18.0 38.9
11/29/22 - 1100 35.2 14 -9.7 25.4 18.0 37.0
11/29/22 - 1000 30.2 25 -1.8 22.8 18.0 33.6
11/29/22 - 0900 26.0 29 -2.1 19.9 18.0 32.8
11/29/22 - 0800 21.0 35 -2.3 16.3 18.0 32.8
11/29/22 - 0700 19.6 39 -1.6 15.4 18.0 32.8
11/29/22 - 0600 23.0 32 -2.9 17.7 20.3 32.8
11/29/22 - 0500 22.7 32 -3.1 17.4 21.7 32.8
11/29/22 - 0400 25.2 28 -3.2 19.2 23.6 32.8
11/29/22 - 0300 30.2 19 -8.0 22.2 26.9 32.8
11/29/22 - 0200 30.6 16 -10.9 22.2 27.7 32.4
11/29/22 - 0100 30.0 14 -14.1 21.6 27.7 31.4
11/29/22 - 0000 29.3 15 -12.7 21.2 25.6 36.6
11/28/22 - 2300 29.9 18 -8.9 21.9 25.6 36.6
11/28/22 - 2200 29.6 24 -3.5 22.2 25.6 36.6
11/28/22 - 2100 28.0 34 3.0 21.9 25.6 36.6
11/28/22 - 2000 26.8 45 7.9 21.9 25.6 36.6
11/28/22 - 1900 26.3 56 12.7 22.5 25.8 36.6
11/28/22 - 1800 27.7 56 14.1 23.7 26.9 36.6
11/28/22 - 1700 27.5 66 17.5 24.4 26.9 36.6
11/28/22 - 1600 28.4 65 18.3 25.2 27.8 36.6
11/28/22 - 1500 29.0 63 18.2 25.6 28.6 36.6
11/28/22 - 1400 30.2 60 17.9 26.3 29.1 36.6
11/28/22 - 1300 30.5 61 18.8 26.7 29.1 36.6
11/28/22 - 1200 30.2 68 21.1 27.1 29.1 36.6
11/28/22 - 1100 29.4 68 20.3 26.4 29.1 36.6
11/28/22 - 1000 29.9 63 18.7 26.3 29.6 36.6
11/28/22 - 0900 30.4 55 16.3 26.1 30.1 36.6
11/28/22 - 0800 30.7 46 12.5 25.4 30.3 36.6
11/28/22 - 0700 31.0 38 8.3 24.8 30.6 36.6
11/28/22 - 0600 32.1 42 11.5 26.1 31.5 36.6
11/28/22 - 0500 32.6 32 5.5 25.4 32.2 36.6
11/28/22 - 0400 33.2 21 -2.9 24.7 32.7 36.6
11/28/22 - 0300 33.8 14 -10.7 24.4 33.2 36.6
11/28/22 - 0200 34.6 11 -15.4 24.6 34.2 36.6
11/28/22 - 0100 35.6 10 -16.5 25.1 34.6 36.6
11/28/22 - 0000 36.4 10 -16.0 25.6 21.4 45.9
11/27/22 - 2300 36.7 11 -13.4 26.0 21.4 45.9
11/27/22 - 2200 36.9 10 -14.7 26.0 21.4 45.9
11/27/22 - 2100 37.0 9 -17.1 26.0 21.4 45.9
11/27/22 - 2000 37.2 9 -16.0 26.2 21.4 45.9
11/27/22 - 1900 37.4 12 -11.2 26.6 21.4 45.9
11/27/22 - 1800 38.2 18 -1.7 28.1 21.4 45.9
11/27/22 - 1700 39.4 26 7.6 30.0 21.4 45.9
11/27/22 - 1600 40.7 24 7.0 30.7 21.4 45.9
11/27/22 - 1500 42.8 21 5.5 31.7 21.4 45.9
11/27/22 - 1400 43.3 17 1.1 31.4 21.4 45.9
11/27/22 - 1300 44.1 14 -1.7 31.5 21.4 45.9
11/27/22 - 1200 45.0 12 -3.9 31.8 21.4 45.9
11/27/22 - 1100 44.7 12 -4.5 31.6 21.4 45.7
11/27/22 - 1000 43.2 16 -0.9 31.2 21.4 45.4
11/27/22 - 0900 40.6 19 1.2 29.9 21.4 43.1
11/27/22 - 0800 38.1 17 -3.6 27.7 21.4 40.8
11/27/22 - 0700 36.8 18 -3.2 27.0 21.4 39.2
11/27/22 - 0600 36.8 17 -4.2 26.9 21.4 38.5
11/27/22 - 0500 31.8 24 -1.4 24.0 21.4 35.5
11/27/22 - 0400 30.1 26 -0.5 22.9 21.4 32.8
11/27/22 - 0300 28.7 26 -1.8 21.8 21.4 32.2
11/27/22 - 0200 27.7 26 -3.0 21.0 21.4 28.8
11/27/22 - 0100 23.6 31 -3.0 18.0 21.4 28.3
11/27/22 - 0000 21.8 33 -3.0 16.8 20.8 43.8
11/26/22 - 2300 22.1 32 -3.1 17.0 21.2 43.8
11/26/22 - 2200 24.5 38 2.1 19.4 22.5 43.8
11/26/22 - 2100 24.8 72 17.1 22.5 23.9 43.8
11/26/22 - 2000 26.1 75 19.2 23.9 25.4 43.8
11/26/22 - 1900 26.4 74 19.3 24.2 25.7 43.8
11/26/22 - 1800 27.6 69 18.9 24.8 26.8 43.8
11/26/22 - 1700 30.4 64 19.6 26.8 27.8 43.8
11/26/22 - 1600 34.8 55 20.2 29.8 31.4 43.8
11/26/22 - 1500 40.5 42 18.9 33.0 38.5 43.8
11/26/22 - 1400 43.2 33 16.0 33.8 38.5 43.8
11/26/22 - 1300 42.7 34 16.1 33.6 38.5 43.4
11/26/22 - 1200 40.2 33 13.4 31.6 38.5 43.0
11/26/22 - 1100 39.9 28 9.4 30.6 38.5 43.0
11/26/22 - 1000 39.7 22 3.7 29.6 38.5 43.0
11/26/22 - 0900 39.6 22 3.9 29.6 38.5 43.0
11/26/22 - 0800 38.9 20 1.5 28.8 38.5 43.0
11/26/22 - 0700 39.4 24 5.3 29.6 38.8 43.0
11/26/22 - 0600 40.3 24 6.2 30.4 39.5 43.0
11/26/22 - 0500 40.6 22 4.8 30.3 39.7 43.0
11/26/22 - 0400 40.6 19 1.9 29.9 39.7 43.0
11/26/22 - 0300 42.2 16 -0.9 30.5 41.8 43.0
11/26/22 - 0200 42.5 16 -0.8 30.7 41.9 43.0
11/26/22 - 0100 42.4 18 1.4 30.9 41.9 42.8
11/26/22 - 0000 41.6 22 5.3 31.0 25.5 51.9
11/25/22 - 2300 38.3 29 8.6 29.5 25.5 51.9
11/25/22 - 2200 38.4 33 11.5 30.0 25.5 51.9
11/25/22 - 2100 39.8 33 13.0 31.2 25.5 51.9
11/25/22 - 2000 40.8 34 14.2 32.0 25.5 51.9
11/25/22 - 1900 37.4 41 15.4 30.2 25.5 51.9
11/25/22 - 1800 37.1 42 16.0 30.2 25.5 51.9
11/25/22 - 1700 38.6 41 16.8 31.4 25.5 51.9
11/25/22 - 1600 40.8 38 16.9 32.6 25.5 51.9
11/25/22 - 1500 48.5 26 15.0 36.5 25.5 51.9
11/25/22 - 1400 49.2 25 14.2 36.8 25.5 51.9
11/25/22 - 1300 50.2 22 13.1 37.1 25.5 51.9
11/25/22 - 1200 49.1 23 13.1 36.5 25.5 50.8
11/25/22 - 1100 45.9 28 14.4 35.0 25.5 48.0
11/25/22 - 1000 40.8 34 14.2 32.1 25.5 44.6
11/25/22 - 0900 40.1 33 13.0 31.4 25.5 41.5
11/25/22 - 0800 35.2 35 10.0 27.8 25.5 39.5
11/25/22 - 0700 31.3 40 9.5 25.2 25.5 33.8
11/25/22 - 0600 29.4 40 8.1 23.7 25.5 32.0
11/25/22 - 0500 28.9 39 7.2 23.2 25.5 30.3
11/25/22 - 0400 28.2 40 7.1 22.7 25.5 29.8
11/25/22 - 0300 27.7 42 7.8 22.5 25.5 29.8
11/25/22 - 0200 27.0 44 7.9 22.0 25.5 29.5
11/25/22 - 0100 27.1 44 7.8 22.1 26.2 29.5
11/25/22 - 0000 26.6 46 8.4 21.9 25.1 45.8
Max 50.2 96 23.7 37.1 41.9 51.9
Avg 32.2 39 6.5 25.5 - -
Min 19.6 9 -17.1 15.4 18.0 28.3